Time;durP1;ratioP1;P1;durP2;ratioP2;P2;SDS_P1;SDS_P2;PMS_P1;PMS_P2;Temp;Humidity;BMP_temperature;BMP_pressure;BME280_temperature;BME280_humidity;BME280_pressure;Samples;Min_cycle;Max_cycle;Signal;HPM_P1;HPM_P2
2024/02/05 00:00:02;;;;;;;0.60;0.50;;;;;;;7.32;73.64;98417.00;231825;204;139348;-62
2024/02/05 00:05:33;;;;;;;1.30;0.50;;;;;;;7.29;73.93;98415.23;231964;204;156351;-60
2024/02/05 00:10:36;;;;;;;0.80;0.60;;;;;;;7.21;74.12;98410.25;231776;204;137993;-62
2024/02/05 00:15:39;;;;;;;0.80;0.70;;;;;;;7.21;74.29;98404.45;231990;204;138202;-63
2024/02/05 00:20:43;;;;;;;0.60;0.60;;;;;;;7.22;74.46;98403.50;231817;197;153088;-63
2024/02/05 00:25:46;;;;;;;2.00;0.70;;;;;;;7.31;74.48;98404.71;232124;202;138549;-63
2024/02/05 00:30:50;;;;;;;1.60;0.90;;;;;;;7.45;74.27;98406.55;231838;197;138305;-62
2024/02/05 00:35:53;;;;;;;1.00;0.70;;;;;;;7.47;74.10;98400.73;231861;204;156708;-63
2024/02/05 00:40:56;;;;;;;1.10;0.80;;;;;;;7.47;74.21;98402.20;231985;204;137352;-64
2024/02/05 00:46:00;;;;;;;1.30;0.80;;;;;;;7.42;74.29;98402.99;232066;204;139349;-63
2024/02/05 00:51:03;;;;;;;1.00;0.60;;;;;;;7.32;74.64;98393.70;232075;204;153090;-64
2024/02/05 00:56:07;;;;;;;2.30;0.70;;;;;;;7.36;74.92;98390.10;232194;201;138227;-64
2024/02/05 01:01:10;;;;;;;1.70;0.80;;;;;;;7.38;74.90;98372.39;231975;197;138277;-64
2024/02/05 01:06:14;;;;;;;3.70;0.90;;;;;;;7.42;74.95;98378.84;231846;202;154727;-64
2024/02/05 01:11:18;;;;;;;2.30;0.90;;;;;;;7.40;75.08;98379.28;231776;197;137827;-64
2024/02/05 01:16:21;;;;;;;1.50;1.10;;;;;;;7.38;75.26;98377.66;232005;204;137423;-63
2024/02/05 01:21:24;;;;;;;1.40;0.60;;;;;;;7.33;75.44;98366.44;232069;204;156241;-63
2024/02/05 01:26:27;;;;;;;1.40;0.70;;;;;;;7.30;75.27;98366.62;231990;204;137224;-64
2024/02/05 01:31:30;;;;;;;1.30;0.60;;;;;;;7.32;75.25;98364.91;232106;204;138063;-63
2024/02/05 01:36:33;;;;;;;3.30;0.90;;;;;;;7.42;75.05;98351.31;232016;204;153076;-63
2024/02/05 01:41:37;;;;;;;1.30;0.70;;;;;;;7.48;74.75;98341.23;231873;198;142247;-63
2024/02/05 01:46:40;;;;;;;0.70;0.60;;;;;;;7.49;74.63;98333.41;231970;201;138480;-63
2024/02/05 01:51:47;;;;;;;1.00;0.60;;;;;;;7.47;74.51;98323.98;232068;201;153938;-63
2024/02/05 01:56:53;;;;;;;1.10;0.60;;;;;;;7.37;74.92;98317.18;232010;202;138114;-63
2024/02/05 02:01:56;;;;;;;1.90;0.80;;;;;;;7.31;75.35;98307.34;232226;204;138170;-64
2024/02/05 02:07:03;;;;;;;2.00;0.70;;;;;;;7.32;75.32;98300.70;231942;202;153962;-64
2024/02/05 02:12:07;;;;;;;0.90;0.60;;;;;;;7.30;75.44;98292.00;231997;204;138306;-63
2024/02/05 02:17:10;;;;;;;1.70;0.70;;;;;;;7.25;75.72;98288.09;232078;201;138575;-63
2024/02/05 02:22:41;;;;;;;1.90;0.70;;;;;;;7.25;75.75;98284.59;232009;198;153734;-62
2024/02/05 02:27:45;;;;;;;1.00;0.50;;;;;;;7.21;75.40;98277.75;231972;204;138298;-63
2024/02/05 02:33:23;;;;;;;0.90;0.40;;;;;;;7.17;75.29;98276.05;232006;200;137669;-62
2024/02/05 02:38:32;;;;;;;0.80;0.40;;;;;;;7.17;75.47;98270.05;231796;198;155078;-63
2024/02/05 02:43:46;;;;;;;0.60;0.30;;;;;;;7.21;75.48;98264.89;231920;205;138898;-62
2024/02/05 02:48:50;;;;;;;0.90;0.50;;;;;;;7.13;75.16;98259.70;231923;200;138347;-62
2024/02/05 02:53:53;;;;;;;0.60;0.40;;;;;;;7.05;75.34;98250.88;231985;204;153709;-63
2024/02/05 02:58:56;;;;;;;0.60;0.50;;;;;;;6.98;75.88;98242.08;232007;197;137839;-63
2024/02/05 03:03:59;;;;;;;0.80;0.30;;;;;;;6.97;76.19;98235.61;231998;198;138614;-63
2024/02/05 03:09:03;;;;;;;0.50;0.40;;;;;;;7.04;76.54;98220.03;231945;202;155127;-63
2024/02/05 03:14:06;;;;;;;1.30;0.50;;;;;;;7.10;76.87;98225.29;232031;200;137753;-63
2024/02/05 03:19:09;;;;;;;0.60;0.40;;;;;;;7.17;76.89;98219.81;232036;204;137577;-62
2024/02/05 03:24:12;;;;;;;0.30;0.30;;;;;;;7.18;77.02;98213.91;232021;198;153203;-62
2024/02/05 03:29:16;;;;;;;0.90;0.50;;;;;;;7.20;77.26;98200.05;231988;202;138182;-62
2024/02/05 03:34:19;;;;;;;0.60;0.50;;;;;;;7.28;77.20;98190.87;232074;204;137540;-63
2024/02/05 03:39:23;;;;;;;1.50;0.80;;;;;;;7.38;77.15;98175.77;231849;202;153386;-62
2024/02/05 03:44:26;;;;;;;1.40;0.60;;;;;;;7.44;77.14;98167.66;231794;197;139133;-62
2024/02/05 03:49:29;;;;;;;1.90;0.80;;;;;;;7.43;77.11;98152.55;232242;201;137744;-63
2024/02/05 03:54:34;;;;;;;0.90;0.70;;;;;;;7.45;77.22;98143.04;232043;204;153532;-62
2024/02/05 03:59:37;;;;;;;1.10;0.80;;;;;;;7.47;77.33;98130.20;231957;201;138314;-62
2024/02/05 04:04:41;;;;;;;0.90;0.50;;;;;;;7.50;77.49;98112.19;231924;197;137391;-62
2024/02/05 04:09:44;;;;;;;3.20;0.90;;;;;;;7.57;77.68;98102.70;231997;197;153270;-62
2024/02/05 04:14:47;;;;;;;0.80;0.70;;;;;;;7.72;77.50;98092.21;232030;201;137524;-62
2024/02/05 04:19:51;;;;;;;1.10;0.60;;;;;;;7.76;77.43;98082.73;231951;197;139175;-62
2024/02/05 04:24:54;;;;;;;1.10;0.80;;;;;;;7.78;77.40;98070.61;232041;202;153230;-61
2024/02/05 04:29:57;;;;;;;2.60;1.30;;;;;;;7.81;77.33;98064.25;232003;204;138287;-61
2024/02/05 04:35:00;;;;;;;1.10;0.90;;;;;;;7.82;77.43;98056.58;231959;204;137920;-61
2024/02/05 04:40:05;;;;;;;1.40;1.10;;;;;;;7.84;77.51;98036.84;232008;204;153673;-60
2024/02/05 04:45:08;;;;;;;2.50;1.10;;;;;;;7.92;77.56;98029.84;231937;198;138024;-62
2024/02/05 04:50:13;;;;;;;1.50;1.00;;;;;;;8.02;77.62;98021.70;231931;202;138295;-62
2024/02/05 04:55:17;;;;;;;1.10;1.00;;;;;;;8.09;77.80;98009.75;232108;204;154344;-63
2024/02/05 05:00:21;;;;;;;1.20;0.90;;;;;;;8.11;78.12;98001.13;231888;204;137218;-62
2024/02/05 05:05:25;;;;;;;1.90;1.10;;;;;;;8.13;78.53;97995.20;232091;204;138172;-62
2024/02/05 05:10:28;;;;;;;7.50;6.10;;;;;;;8.16;79.31;97987.17;231889;197;154252;-62
2024/02/05 05:15:32;;;;;;;2.10;1.70;;;;;;;8.27;79.67;97980.04;232007;197;139590;-62
2024/02/05 05:20:41;;;;;;;19.00;15.00;;;;;;;8.35;80.02;97977.75;232006;197;138217;-61
2024/02/05 05:25:44;;;;;;;1.50;1.10;;;;;;;8.46;80.57;97967.98;232180;204;153628;-62
2024/02/05 05:30:47;;;;;;;0.80;0.60;;;;;;;8.56;81.38;97958.45;231837;197;137096;-59
2024/02/05 05:35:50;;;;;;;7.70;5.10;;;;;;;8.68;81.83;97967.14;232015;200;137758;-60
2024/02/05 05:40:54;;;;;;;5.20;3.90;;;;;;;8.82;81.97;97959.77;231887;202;153753;-60
2024/02/05 05:45:57;;;;;;;2.30;0.60;;;;;;;8.94;82.05;97957.80;231982;197;138362;-61
2024/02/05 05:51:01;;;;;;;1.00;0.60;;;;;;;9.00;82.03;97956.81;232024;204;137516;-60
2024/02/05 05:56:05;;;;;;;1.10;0.60;;;;;;;9.10;82.00;97951.03;231994;204;154015;-59
2024/02/05 06:01:08;;;;;;;3.10;0.80;;;;;;;9.21;81.91;97962.67;231925;196;140980;-59
2024/02/05 06:06:12;;;;;;;2.80;0.80;;;;;;;9.31;82.00;97969.45;231997;204;138316;-60
2024/02/05 06:11:15;;;;;;;1.80;0.70;;;;;;;9.32;82.29;97972.92;232067;201;153092;-59
2024/02/05 06:16:18;;;;;;;1.60;0.70;;;;;;;9.37;82.23;97972.67;232009;201;137487;-58
2024/02/05 06:21:21;;;;;;;0.70;0.60;;;;;;;9.42;82.33;97968.38;231994;204;138390;-59
2024/02/05 06:26:24;;;;;;;1.60;0.80;;;;;;;9.43;82.59;97971.89;231994;204;153752;-60
2024/02/05 06:31:27;;;;;;;3.10;1.80;;;;;;;9.54;82.46;97964.91;231648;198;138751;-61
2024/02/05 06:36:31;;;;;;;1.20;0.80;;;;;;;9.64;82.10;97967.98;231952;202;138532;-59
2024/02/05 06:41:34;;;;;;;0.90;0.60;;;;;;;9.68;81.91;97974.80;232048;204;153489;-58
2024/02/05 06:46:37;;;;;;;0.80;0.60;;;;;;;9.73;81.79;97968.80;231937;204;140696;-61
2024/02/05 06:51:41;;;;;;;1.10;0.60;;;;;;;9.70;81.83;97972.70;231905;201;138951;-58
2024/02/05 06:56:44;;;;;;;1.20;0.70;;;;;;;9.73;81.90;97969.98;231965;198;153502;-57
2024/02/05 07:01:51;;;;;;;2.40;0.90;;;;;;;9.74;82.08;97971.38;231998;204;140619;-59
2024/02/05 07:06:54;;;;;;;2.30;0.90;;;;;;;9.77;82.24;97975.76;231808;198;138322;-60
2024/02/05 07:11:57;;;;;;;2.30;0.90;;;;;;;9.78;82.20;97965.04;231936;201;153754;-58
2024/02/05 07:17:00;;;;;;;0.60;0.60;;;;;;;9.79;82.28;97987.97;231625;198;267008;-56
2024/02/05 07:22:04;;;;;;;1.30;0.60;;;;;;;9.79;82.25;97996.45;231995;201;138093;-59
2024/02/05 07:27:07;;;;;;;1.50;0.80;;;;;;;9.83;82.39;98002.15;231986;197;153098;-58
2024/02/05 07:32:10;;;;;;;0.90;0.60;;;;;;;9.90;82.34;98020.61;231920;204;138110;-59
2024/02/05 07:37:14;;;;;;;2.20;1.10;;;;;;;9.96;82.18;98032.02;231843;198;138775;-58
2024/02/05 07:42:17;;;;;;;1.40;0.70;;;;;;;10.01;82.03;98043.56;232009;204;153455;-58
2024/02/05 07:47:20;;;;;;;1.40;0.80;;;;;;;10.01;82.17;98076.70;232007;198;139306;-58
2024/02/05 07:52:25;;;;;;;48.80;42.60;;;;;;;10.00;82.15;98092.48;231830;197;139788;-59
2024/02/05 07:57:29;;;;;;;2.40;1.20;;;;;;;10.10;82.60;98103.63;231818;198;153015;-58
2024/02/05 08:02:33;;;;;;;1.90;0.90;;;;;;;10.22;82.16;98120.48;231986;200;138331;-59
2024/02/05 08:07:36;;;;;;;1.60;0.80;;;;;;;10.24;80.95;98129.69;231942;205;137846;-56
2024/02/05 08:12:40;;;;;;;1.00;0.40;;;;;;;10.02;78.35;98159.52;231867;204;153092;-57
2024/02/05 08:17:43;;;;;;;7.80;5.10;;;;;;;9.77;78.13;98170.08;231791;198;137775;-59
2024/02/05 08:22:46;;;;;;;3.10;1.00;;;;;;;9.58;77.09;98161.63;231744;204;139503;-59
2024/02/05 08:27:49;;;;;;;2.40;0.50;;;;;;;9.36;77.69;98167.66;231864;200;153309;-57
2024/02/05 08:32:53;;;;;;;2.60;0.70;;;;;;;9.38;78.41;98175.67;231735;198;140165;-59
2024/02/05 08:37:56;;;;;;;1.40;0.50;;;;;;;9.40;78.20;98187.19;232020;201;138422;-60
2024/02/05 08:43:00;;;;;;;2.10;0.50;;;;;;;9.44;78.58;98175.95;231936;201;154624;-59
2024/02/05 08:48:06;;;;;;;0.70;0.40;;;;;;;9.49;78.68;98191.54;231934;197;140059;-59
2024/02/05 08:53:09;;;;;;;5.10;3.60;;;;;;;9.52;78.88;98195.36;231703;204;137354;-60
2024/02/05 08:58:13;;;;;;;1.70;0.70;;;;;;;9.60;78.79;98198.14;231806;197;153389;-60
2024/02/05 09:03:16;;;;;;;1.30;0.80;;;;;;;9.68;78.60;98191.36;231676;198;138295;-59
2024/02/05 09:08:20;;;;;;;10.40;5.90;;;;;;;9.77;78.83;98192.49;231872;197;139923;-59
2024/02/05 09:13:24;;;;;;;2.50;1.40;;;;;;;9.86;78.53;98196.15;231941;196;154901;-58
2024/02/05 09:18:27;;;;;;;1.40;0.90;;;;;;;9.87;78.36;98200.17;231857;197;138156;-59
2024/02/05 09:23:33;;;;;;;1.30;0.90;;;;;;;9.87;78.45;98202.27;231883;204;137991;-59
2024/02/05 09:28:36;;;;;;;1.90;1.00;;;;;;;9.89;78.69;98200.02;231896;204;153565;-59
2024/02/05 09:33:40;;;;;;;3.00;1.10;;;;;;;9.98;78.82;98207.63;231795;204;137186;-59
2024/02/05 09:38:43;;;;;;;3.10;1.10;;;;;;;10.08;78.89;98213.11;231849;201;139252;-59
2024/02/05 09:43:50;;;;;;;1.90;1.10;;;;;;;10.10;78.70;98209.95;232011;201;153105;-59
2024/02/05 09:48:55;;;;;;;2.80;1.20;;;;;;;10.11;78.95;98208.06;231744;204;138725;-59
2024/02/05 09:54:02;;;;;;;2.70;0.80;;;;;;;10.14;78.78;98203.41;231921;197;138153;-58
2024/02/05 09:59:19;;;;;;;1.40;0.80;;;;;;;10.15;78.79;98196.48;231902;201;153213;-59
2024/02/05 10:04:24;;;;;;;3.00;1.00;;;;;;;10.18;78.77;98194.98;231877;201;138390;-59
2024/02/05 10:09:29;;;;;;;4.10;3.10;;;;;;;10.28;78.80;98192.14;231865;201;139125;-59
2024/02/05 10:14:33;;;;;;;2.50;0.90;;;;;;;10.21;78.70;98180.63;231887;204;153751;-60
2024/02/05 10:19:36;;;;;;;1.90;0.80;;;;;;;10.14;78.90;98179.34;232221;204;137986;-58
2024/02/05 10:24:40;;;;;;;1.20;0.60;;;;;;;10.13;79.32;98177.46;231918;204;138678;-58
2024/02/05 10:29:44;;;;;;;1.60;0.90;;;;;;;10.22;79.21;98175.08;231896;196;153013;-60
2024/02/05 10:34:51;;;;;;;1.80;1.10;;;;;;;10.24;79.25;98168.34;231863;197;138396;-60
2024/02/05 10:40:10;;;;;;;2.00;1.00;;;;;;;10.27;79.32;98157.68;231857;197;138199;-60
2024/02/05 10:45:14;;;;;;;3.20;1.30;;;;;;;10.26;79.58;98157.05;232021;204;153460;-59
2024/02/05 10:50:17;;;;;;;2.80;1.40;;;;;;;10.24;80.34;98153.48;232124;200;138479;-60
2024/02/05 10:55:20;;;;;;;1.90;1.20;;;;;;;10.23;81.23;98142.70;232008;204;137963;-59
2024/02/05 11:00:24;;;;;;;4.40;2.80;;;;;;;10.22;81.91;98138.71;231857;197;153280;-60
2024/02/05 11:05:27;;;;;;;1.70;1.10;;;;;;;10.27;82.23;98146.38;231819;205;137681;-60
2024/02/05 11:10:32;;;;;;;1.90;1.10;;;;;;;10.29;82.25;98144.05;231791;198;138314;-60
2024/02/05 11:15:38;;;;;;;1.80;1.20;;;;;;;10.36;82.12;98138.34;231802;199;155372;-58
2024/02/05 11:20:47;;;;;;;2.00;1.20;;;;;;;10.39;82.17;98132.50;231933;204;137504;-58
2024/02/05 11:25:51;;;;;;;2.60;1.40;;;;;;;10.34;82.43;98133.73;231941;200;137643;-58
2024/02/05 11:31:06;;;;;;;2.30;1.30;;;;;;;10.31;82.50;98122.61;231874;204;154427;-57
2024/02/05 11:36:12;;;;;;;1.70;1.10;;;;;;;10.36;82.48;98129.16;231894;204;138704;-58
2024/02/05 11:41:21;;;;;;;1.70;1.20;;;;;;;10.36;82.62;98131.84;231953;204;137694;-57
2024/02/05 11:46:25;;;;;;;3.00;1.50;;;;;;;10.31;82.73;98143.89;231963;204;152978;-59
2024/02/05 11:51:29;;;;;;;2.80;1.50;;;;;;;10.29;82.98;98146.02;232011;204;138638;-57
2024/02/05 11:56:35;;;;;;;3.30;1.60;;;;;;;10.32;83.10;98146.09;232101;204;137921;-57
2024/02/05 12:01:43;;;;;;;2.00;1.30;;;;;;;10.34;82.99;98150.05;232028;197;153135;-58
2024/02/05 12:06:47;;;;;;;2.70;1.70;;;;;;;10.31;83.31;98150.11;231838;202;137471;-58
2024/02/05 12:11:51;;;;;;;2.70;1.90;;;;;;;10.34;83.35;98147.80;232059;204;138791;-59
2024/02/05 12:16:54;;;;;;;3.60;1.60;;;;;;;10.37;83.38;98152.14;231846;202;153170;-57
2024/02/05 12:21:57;;;;;;;2.20;1.20;;;;;;;10.39;83.35;98145.61;232001;200;138036;-61
2024/02/05 12:27:01;;;;;;;4.80;1.70;;;;;;;10.40;83.24;98143.56;231826;205;137920;-60
2024/02/05 12:32:07;;;;;;;3.90;1.70;;;;;;;10.43;83.41;98151.67;231909;197;153313;-63
2024/02/05 12:37:11;;;;;;;1.90;1.40;;;;;;;10.43;83.41;98149.73;231792;197;138619;-62
2024/02/05 12:42:17;;;;;;;2.20;1.30;;;;;;;10.44;83.50;98149.70;232041;204;138176;-61
2024/02/05 12:47:22;;;;;;;2.20;1.40;;;;;;;10.47;83.51;98148.42;232000;197;153286;-62
2024/02/05 12:52:25;;;;;;;3.10;1.80;;;;;;;10.55;83.48;98156.48;231893;204;137683;-63
2024/02/05 12:57:30;;;;;;;2.40;1.40;;;;;;;10.61;83.00;98161.83;231943;202;138616;-63
2024/02/05 13:02:34;;;;;;;3.90;1.80;;;;;;;10.63;82.84;98160.23;231989;204;154435;-60
2024/02/05 13:07:38;;;;;;;3.10;1.80;;;;;;;10.57;82.77;98160.52;232003;197;137989;-60
2024/02/05 13:12:41;;;;;;;2.80;1.40;;;;;;;10.56;83.16;98159.54;232026;197;138377;-59
2024/02/05 13:17:45;;;;;;;2.20;1.70;;;;;;;10.63;83.09;98159.71;231910;201;153120;-58
2024/02/05 13:22:49;;;;;;;2.50;1.70;;;;;;;10.69;82.84;98159.47;231891;201;138366;-59
2024/02/05 13:27:52;;;;;;;5.00;1.90;;;;;;;10.71;82.75;98165.73;231975;204;137474;-61
2024/02/05 13:32:55;;;;;;;5.10;2.00;;;;;;;10.67;82.72;98175.23;231701;198;153736;-60
2024/02/05 13:37:58;;;;;;;3.60;1.80;;;;;;;10.69;82.71;98175.23;232080;197;137895;-60
2024/02/05 13:43:05;;;;;;;3.20;2.00;;;;;;;10.73;82.60;98181.31;232031;201;138338;-61
2024/02/05 13:48:09;;;;;;;3.60;2.10;;;;;;;10.81;82.74;98182.85;231894;204;154265;-61
2024/02/05 13:53:12;;;;;;;5.40;2.80;;;;;;;10.84;82.50;98198.41;231897;201;138254;-62
2024/02/05 13:58:16;;;;;;;4.90;2.10;;;;;;;10.79;82.47;98194.21;231935;204;137643;-60
2024/02/05 14:03:19;;;;;;;3.80;2.10;;;;;;;10.84;82.60;98205.65;232038;196;154213;-62
2024/02/05 14:08:24;;;;;;;5.00;1.90;;;;;;;10.90;82.31;98204.52;231976;197;137584;-62
2024/02/05 14:13:28;;;;;;;3.30;2.00;;;;;;;10.90;82.32;98209.83;232070;197;137675;-61
2024/02/05 14:18:31;;;;;;;5.70;2.10;;;;;;;10.87;82.35;98221.73;232035;201;153127;-61
2024/02/05 14:23:35;;;;;;;3.70;2.20;;;;;;;10.85;82.19;98223.00;231994;197;141533;-61
2024/02/05 14:28:38;;;;;;;4.00;2.10;;;;;;;10.81;82.41;98224.76;231933;197;140442;-61
2024/02/05 14:33:41;;;;;;;2.50;1.90;;;;;;;10.80;82.09;98229.80;231894;204;153189;-62
2024/02/05 14:38:49;;;;;;;4.10;1.70;;;;;;;10.84;81.67;98235.85;231923;204;138917;-62
2024/02/05 14:43:52;;;;;;;4.60;1.80;;;;;;;10.88;81.26;98241.91;232018;198;138398;-63
2024/02/05 14:48:55;;;;;;;4.30;1.90;;;;;;;10.89;81.04;98248.59;231834;201;155147;-63
2024/02/05 14:53:58;;;;;;;3.90;1.90;;;;;;;10.91;81.09;98252.54;231505;197;138263;-63
2024/02/05 14:59:04;;;;;;;5.20;2.30;;;;;;;10.90;80.85;98249.24;231705;198;139542;-62
2024/02/05 15:04:07;;;;;;;3.90;1.90;;;;;;;10.95;80.80;98251.55;231922;197;154048;-63
2024/02/05 15:09:11;;;;;;;4.90;2.00;;;;;;;10.97;80.39;98249.56;231799;198;138506;-62
2024/02/05 15:14:17;;;;;;;4.30;2.70;;;;;;;11.01;80.50;98250.55;231948;197;142038;-61
2024/02/05 15:19:20;;;;;;;5.00;3.30;;;;;;;10.97;80.72;98261.13;232018;204;154810;-62
2024/02/05 15:24:24;;;;;;;6.10;3.00;;;;;;;10.99;80.55;98257.92;231780;204;139560;-63
2024/02/05 15:29:27;;;;;;;9.40;3.30;;;;;;;11.00;80.41;98262.38;231871;197;138183;-61
2024/02/05 15:34:33;;;;;;;9.20;3.50;;;;;;;11.03;80.08;98267.23;231881;201;152986;-62
2024/02/05 15:39:36;;;;;;;;;;;;;;;11.00;79.92;98283.25;231873;202;138176;-62
2024/02/05 15:44:40;;;;;;;5.90;3.20;;;;;;;10.95;79.97;98287.74;232039;202;138540;-61
2024/02/05 15:49:43;;;;;;;6.90;3.10;;;;;;;10.90;79.64;98291.08;231910;204;154270;-64
2024/02/05 15:54:46;;;;;;;6.20;2.80;;;;;;;10.86;79.78;98303.66;231787;204;139258;-63
2024/02/05 15:59:49;;;;;;;7.10;2.90;;;;;;;10.79;79.93;98313.45;231975;197;137730;-63
2024/02/05 16:04:53;;;;;;;11.10;2.90;;;;;;;10.76;80.17;98310.65;231897;204;153398;-64
2024/02/05 16:09:56;;;;;;;7.60;3.00;;;;;;;10.72;80.36;98313.75;231910;204;138869;-64
2024/02/05 16:14:59;;;;;;;11.40;3.10;;;;;;;10.74;80.31;98312.17;231940;201;138009;-64
2024/02/05 16:20:04;;;;;;;11.90;3.10;;;;;;;10.76;80.02;98317.39;232027;204;153853;-64
2024/02/05 16:25:08;;;;;;;9.70;3.40;;;;;;;10.65;80.26;98329.17;231949;204;138313;-64
2024/02/05 16:30:12;;;;;;;7.60;3.20;;;;;;;10.54;80.68;98331.92;231963;197;138258;-64
2024/02/05 16:35:15;;;;;;;12.90;3.40;;;;;;;10.50;80.86;98338.59;231804;201;153259;-63
2024/02/05 16:40:23;;;;;;;11.70;4.20;;;;;;;10.46;81.09;98343.52;231895;202;138320;-64
2024/02/05 16:45:26;;;;;;;6.80;3.40;;;;;;;10.47;81.28;98359.95;231903;204;138087;-65
2024/02/05 16:50:29;;;;;;;8.90;3.70;;;;;;;10.47;81.39;98372.58;231785;198;153678;-65
2024/02/05 16:55:33;;;;;;;11.90;4.40;;;;;;;10.54;81.44;98370.94;231838;204;138279;-64
2024/02/05 17:00:36;;;;;;;12.50;4.20;;;;;;;10.61;81.14;98367.04;231876;204;139271;-63
2024/02/05 17:05:40;;;;;;;14.20;4.20;;;;;;;10.69;80.68;98367.22;231763;204;153841;-62
2024/02/05 17:10:44;;;;;;;11.30;4.00;;;;;;;10.74;79.79;98361.88;231736;197;137656;-62
2024/02/05 17:15:48;;;;;;;14.30;4.20;;;;;;;10.79;79.19;98366.27;231878;201;138909;-62
2024/02/05 17:20:52;;;;;;;13.10;5.00;;;;;;;10.82;78.40;98361.98;231789;198;153913;-63
2024/02/05 17:25:55;;;;;;;11.40;3.70;;;;;;;10.83;77.28;98364.91;231841;202;138903;-63
2024/02/05 17:30:58;;;;;;;14.40;4.00;;;;;;;10.80;76.99;98363.56;231853;204;138147;-63
2024/02/05 17:36:04;;;;;;;11.60;3.70;;;;;;;10.80;75.96;98357.39;231717;197;153233;-59
2024/02/05 17:41:16;;;;;;;10.70;4.00;;;;;;;10.88;75.83;98359.56;231716;197;137358;-60
2024/02/05 17:46:19;;;;;;;12.00;4.10;;;;;;;10.95;74.88;98351.09;231985;204;139463;-62
2024/02/05 17:51:23;;;;;;;12.30;4.50;;;;;;;11.01;74.30;98345.29;231813;201;154206;-63
2024/02/05 17:56:26;;;;;;;12.20;4.30;;;;;;;11.01;73.72;98347.27;231778;197;138788;-62
2024/02/05 18:01:29;;;;;;;12.30;3.80;;;;;;;10.98;72.87;98349.79;232160;204;138471;-63
2024/02/05 18:06:32;;;;;;;12.60;3.60;;;;;;;11.03;72.29;98355.44;231887;204;153895;-62
2024/02/05 18:11:36;;;;;;;103.40;72.50;;;;;;;11.11;71.77;98352.89;231878;201;138974;-64
2024/02/05 18:16:40;;;;;;;13.90;6.00;;;;;;;11.24;71.05;98351.78;231925;197;139834;-61
2024/02/05 18:21:44;;;;;;;11.20;3.90;;;;;;;11.29;69.06;98343.55;231853;202;153878;-62
2024/02/05 18:26:47;;;;;;;15.90;5.00;;;;;;;11.27;68.58;98336.98;231866;204;138265;-64
2024/02/05 18:31:51;;;;;;;12.50;4.00;;;;;;;11.30;68.15;98337.26;232001;201;138037;-66
2024/02/05 18:36:54;;;;;;;9.60;3.70;;;;;;;11.32;67.23;98352.94;231664;198;154050;-69
2024/02/05 18:41:58;;;;;;;11.30;3.50;;;;;;;11.33;66.57;98351.39;231784;204;138351;-62
2024/02/05 18:47:02;;;;;;;11.60;3.60;;;;;;;11.32;65.81;98348.85;231842;205;138205;-64
2024/02/05 18:52:06;;;;;;;15.80;6.10;;;;;;;11.35;66.05;98350.70;231802;204;153454;-57
2024/02/05 18:57:15;;;;;;;10.30;4.30;;;;;;;11.42;66.33;98349.12;231862;204;138399;-57
2024/02/05 19:02:23;;;;;;;13.00;4.00;;;;;;;11.44;65.83;98336.05;231864;205;137562;-57
2024/02/05 19:07:26;;;;;;;13.20;3.60;;;;;;;11.46;65.98;98340.69;231824;197;153431;-56
2024/02/05 19:12:30;;;;;;;11.20;4.30;;;;;;;11.48;65.96;98345.32;231796;202;138316;-56
2024/02/05 19:17:33;;;;;;;15.50;4.10;;;;;;;11.51;65.92;98349.14;231958;204;140621;-58
2024/02/05 19:22:37;;;;;;;11.00;4.40;;;;;;;11.57;65.94;98350.25;231920;204;152821;-58
2024/02/05 19:27:40;;;;;;;12.00;4.10;;;;;;;11.67;65.58;98347.58;231812;202;138438;-58
2024/02/05 19:32:43;;;;;;;14.60;4.50;;;;;;;11.68;65.26;98331.13;231869;197;139106;-59
2024/02/05 19:37:48;;;;;;;13.80;4.70;;;;;;;11.60;65.10;98327.27;231979;198;153893;-59
2024/02/05 19:42:51;;;;;;;14.30;4.70;;;;;;;11.54;65.21;98330.23;231683;199;140858;-62
2024/02/05 19:47:54;;;;;;;17.60;8.00;;;;;;;11.56;65.72;98338.80;231843;204;138129;-63
2024/02/05 19:52:58;;;;;;;14.00;5.60;;;;;;;11.60;65.39;98339.02;231702;201;153226;-61
2024/02/05 19:58:02;;;;;;;10.20;4.30;;;;;;;11.55;64.98;98330.84;231657;205;138378;-63
2024/02/05 20:03:05;;;;;;;15.40;4.30;;;;;;;11.51;64.59;98335.80;231770;204;140208;-62
2024/02/05 20:08:10;;;;;;;6.80;3.40;;;;;;;11.53;64.40;98327.30;231742;205;153043;-63
2024/02/05 20:13:15;;;;;;;9.70;3.70;;;;;;;11.52;63.81;98322.02;231612;198;140702;-62
2024/02/05 20:18:19;;;;;;;15.60;3.60;;;;;;;11.48;63.56;98322.72;231849;202;140885;-62
2024/02/05 20:23:22;;;;;;;9.70;5.30;;;;;;;11.48;63.99;98319.52;231893;204;153191;-62
2024/02/05 20:28:25;;;;;;;10.00;3.80;;;;;;;11.46;63.25;98321.42;232012;204;138448;-67
2024/02/05 20:33:28;;;;;;;7.40;3.30;;;;;;;11.40;63.15;98317.80;232000;201;139078;-65
2024/02/05 20:38:32;;;;;;;9.20;3.50;;;;;;;11.35;62.97;98316.46;231877;204;152943;-65
2024/02/05 20:43:35;;;;;;;7.00;2.90;;;;;;;11.32;63.08;98319.70;231985;201;137956;-66
2024/02/05 20:48:38;;;;;;;12.10;3.20;;;;;;;11.31;63.07;98313.89;231907;204;138232;-67
2024/02/05 20:53:43;;;;;;;9.00;3.70;;;;;;;11.31;62.76;98326.14;231889;204;155348;-66
2024/02/05 20:58:46;;;;;;;9.60;3.80;;;;;;;11.31;62.84;98328.67;231795;204;138190;-67
2024/02/05 21:03:49;;;;;;;9.30;3.60;;;;;;;11.30;62.96;98321.27;231949;196;138383;-70
2024/02/05 21:08:53;;;;;;;10.70;3.70;;;;;;;11.29;62.64;98319.74;231854;201;154993;-71
2024/02/05 21:13:56;;;;;;;9.30;3.00;;;;;;;11.28;62.40;98326.23;232046;204;138554;-70
2024/02/05 21:19:00;;;;;;;10.70;3.90;;;;;;;11.24;62.25;98322.61;231950;204;141227;-69
2024/02/05 21:24:03;;;;;;;9.30;3.30;;;;;;;11.20;62.15;98316.20;231959;200;153383;-69
2024/02/05 21:29:12;;;;;;;10.10;3.80;;;;;;;11.16;62.10;98312.23;231810;197;138210;-68
2024/02/05 21:34:16;;;;;;;10.70;3.40;;;;;;;11.11;61.79;98309.19;231712;202;139582;-68
2024/02/05 21:39:19;;;;;;;13.80;3.60;;;;;;;11.10;61.89;98303.59;231922;204;153238;-62
2024/02/05 21:44:24;;;;;;;8.80;3.20;;;;;;;11.09;61.55;98300.16;232006;204;138021;-63
2024/02/05 21:49:28;;;;;;;;;;;;;;;11.06;61.36;98292.75;232056;201;139006;-62
2024/02/05 21:54:31;;;;;;;6.80;2.80;;;;;;;11.03;61.32;98298.65;231985;201;154155;-62
2024/02/05 21:59:34;;;;;;;10.50;3.40;;;;;;;10.99;61.04;98309.23;231769;204;141569;-61
2024/02/05 22:04:38;;;;;;;8.70;3.10;;;;;;;10.98;61.17;98310.96;231967;197;138748;-62
2024/02/05 22:09:41;;;;;;;7.60;3.50;;;;;;;10.96;61.00;98313.38;231780;201;154071;-61
2024/02/05 22:14:48;;;;;;;10.30;3.40;;;;;;;10.92;60.89;98314.59;231815;202;138710;-61
2024/02/05 22:19:52;;;;;;;9.00;3.50;;;;;;;10.92;60.75;98320.64;231961;204;137913;-63
2024/02/05 22:24:55;;;;;;;10.10;3.50;;;;;;;10.93;60.69;98323.60;231840;197;152998;-61
2024/02/05 22:29:59;;;;;;;6.60;2.90;;;;;;;10.92;60.75;98327.20;231927;204;137081;-63
2024/02/05 22:35:03;;;;;;;13.40;4.20;;;;;;;10.90;60.42;98330.50;231937;204;138093;-63
2024/02/05 22:40:09;;;;;;;7.80;3.30;;;;;;;10.85;60.43;98330.02;231794;204;154065;-62
2024/02/05 22:45:14;;;;;;;9.00;3.30;;;;;;;10.83;60.20;98343.13;231889;200;137810;-62
2024/02/05 22:50:18;;;;;;;15.00;3.70;;;;;;;10.76;60.06;98341.67;232076;197;140466;-68
2024/02/05 22:55:21;;;;;;;9.80;3.20;;;;;;;10.76;60.05;98337.43;231964;197;152864;-70
2024/02/05 23:05:28;;;;;;;9.50;3.20;;;;;;;10.76;59.99;98330.70;231865;197;138325;-65
2024/02/05 23:10:31;;;;;;;10.00;3.30;;;;;;;10.76;59.77;98334.94;231806;204;153278;-69
2024/02/05 23:15:35;;;;;;;8.10;2.80;;;;;;;10.71;59.76;98333.05;231845;197;137561;-68
2024/02/05 23:20:38;;;;;;;8.70;3.40;;;;;;;10.66;59.70;98333.02;231859;198;138123;-67
2024/02/05 23:25:41;;;;;;;7.30;3.00;;;;;;;10.62;59.71;98326.89;232183;204;153372;-68
2024/02/05 23:30:44;;;;;;;8.10;2.70;;;;;;;10.63;59.43;98323.27;231725;201;250614;-68
2024/02/05 23:35:48;;;;;;;6.20;2.60;;;;;;;10.68;59.24;98327.34;231924;197;138066;-67
2024/02/05 23:40:51;;;;;;;13.20;4.00;;;;;;;10.71;58.81;98324.47;231825;204;153214;-72